METAR Data

Data at: 1304 UTC 25 Sep 2023

METAR for:KCQX (Chatham Muni, MA, US)
Text:KCQX 251252Z AUTO 06015G23KT 10SM FEW018 OVC037 19/14 A3008 RMK AO2 RAE37 SLP188 T01890144 PNO $
Temperature: 18.9°C ( 66°F)
Dewpoint: 14.4°C ( 58°F) [RH = 75%]
Pressure (altimeter):30.08 inches Hg (1018.7 mb) [Sea level pressure: 1018.8 mb]
Winds:from the ENE (60 degrees) at 17 MPH (15 knots; 7.7 m/s) gusting to 26 MPH (23 knots; 11.8 m/s)
Visibility:10 or more sm (16+ km)
Ceiling:3700 feet AGL
Clouds: few clouds at 1800 feet AGL, overcast cloud deck at 3700 feet AGL
QC Flag:automated observation with no human augmentation; SOME DATA ABOVE MAY BE INACCURATE!!!"$" is an indication the sensor requires maintenance.